sensor_id;sensor_type;location;lat;lon;timestamp;temperature;humidity
7378;DHT22;3730;50.856;12.776;2023-05-10T00:00:25;13.20;1.00
7378;DHT22;3730;50.856;12.776;2023-05-10T00:02:50;12.80;1.00
7378;DHT22;3730;50.856;12.776;2023-05-10T00:07:42;13.00;1.00
7378;DHT22;3730;50.856;12.776;2023-05-10T00:10:10;13.00;1.00
7378;DHT22;3730;50.856;12.776;2023-05-10T00:12:36;13.00;1.00
7378;DHT22;3730;50.856;12.776;2023-05-10T00:15:02;12.80;1.00
7378;DHT22;3730;50.856;12.776;2023-05-10T00:17:28;12.90;1.00
7378;DHT22;3730;50.856;12.776;2023-05-10T00:19:54;13.00;1.00
7378;DHT22;3730;50.856;12.776;2023-05-10T00:22:20;12.90;1.00
7378;DHT22;3730;50.856;12.776;2023-05-10T00:27:12;13.00;1.00
7378;DHT22;3730;50.856;12.776;2023-05-10T00:29:37;12.90;1.00
7378;DHT22;3730;50.856;12.776;2023-05-10T00:32:03;12.90;1.00
7378;DHT22;3730;50.856;12.776;2023-05-10T00:34:29;13.00;1.00
7378;DHT22;3730;50.856;12.776;2023-05-10T00:36:54;12.80;1.00
7378;DHT22;3730;50.856;12.776;2023-05-10T00:39:20;12.90;1.00
7378;DHT22;3730;50.856;12.776;2023-05-10T00:41:45;12.80;1.00
7378;DHT22;3730;50.856;12.776;2023-05-10T00:44:11;12.60;1.00
7378;DHT22;3730;50.856;12.776;2023-05-10T00:46:37;12.80;1.00
7378;DHT22;3730;50.856;12.776;2023-05-10T00:49:02;12.80;1.00
7378;DHT22;3730;50.856;12.776;2023-05-10T00:53:54;12.80;1.00
7378;DHT22;3730;50.856;12.776;2023-05-10T00:56:21;12.80;1.00
7378;DHT22;3730;50.856;12.776;2023-05-10T00:58:48;12.80;1.00
7378;DHT22;3730;50.856;12.776;2023-05-10T01:01:14;12.90;1.00
7378;DHT22;3730;50.856;12.776;2023-05-10T01:03:40;12.60;1.00
7378;DHT22;3730;50.856;12.776;2023-05-10T01:06:07;12.60;1.00
7378;DHT22;3730;50.856;12.776;2023-05-10T01:08:33;12.60;1.00
7378;DHT22;3730;50.856;12.776;2023-05-10T01:10:59;12.80;1.00
7378;DHT22;3730;50.856;12.776;2023-05-10T01:13:33;12.80;1.00
7378;DHT22;3730;50.856;12.776;2023-05-10T01:16:00;12.70;1.00
7378;DHT22;3730;50.856;12.776;2023-05-10T01:18:29;12.80;1.00
7378;DHT22;3730;50.856;12.776;2023-05-10T01:24:31;12.60;1.00
7378;DHT22;3730;50.856;12.776;2023-05-10T01:32:52;12.40;1.00
7378;DHT22;3730;50.856;12.776;2023-05-10T01:40:42;12.40;1.00
7378;DHT22;3730;50.856;12.776;2023-05-10T01:43:19;12.60;1.00
7378;DHT22;3730;50.856;12.776;2023-05-10T01:45:56;12.60;1.00
7378;DHT22;3730;50.856;12.776;2023-05-10T01:48:26;12.70;1.00
7378;DHT22;3730;50.856;12.776;2023-05-10T01:50:53;12.50;1.00
7378;DHT22;3730;50.856;12.776;2023-05-10T01:53:21;12.60;1.00
7378;DHT22;3730;50.856;12.776;2023-05-10T01:55:50;12.60;1.00
7378;DHT22;3730;50.856;12.776;2023-05-10T01:58:21;12.60;1.00
7378;DHT22;3730;50.856;12.776;2023-05-10T02:00:49;12.60;1.00
7378;DHT22;3730;50.856;12.776;2023-05-10T02:03:18;12.60;1.00
7378;DHT22;3730;50.856;12.776;2023-05-10T02:05:46;12.40;1.00
7378;DHT22;3730;50.856;12.776;2023-05-10T02:08:13;12.40;1.00
7378;DHT22;3730;50.856;12.776;2023-05-10T02:10:41;12.60;1.00
7378;DHT22;3730;50.856;12.776;2023-05-10T02:13:08;12.80;1.00
7378;DHT22;3730;50.856;12.776;2023-05-10T02:15:36;12.60;1.00
7378;DHT22;3730;50.856;12.776;2023-05-10T02:18:03;12.70;1.00
7378;DHT22;3730;50.856;12.776;2023-05-10T02:20:31;12.50;1.00
7378;DHT22;3730;50.856;12.776;2023-05-10T02:22:57;12.60;1.00
7378;DHT22;3730;50.856;12.776;2023-05-10T02:25:25;12.70;1.00
7378;DHT22;3730;50.856;12.776;2023-05-10T02:27:53;12.80;1.00
7378;DHT22;3730;50.856;12.776;2023-05-10T02:30:20;12.70;1.00
7378;DHT22;3730;50.856;12.776;2023-05-10T02:32:48;12.70;1.00
7378;DHT22;3730;50.856;12.776;2023-05-10T02:35:14;12.70;1.00
7378;DHT22;3730;50.856;12.776;2023-05-10T02:37:41;12.70;1.00
7378;DHT22;3730;50.856;12.776;2023-05-10T02:40:07;12.60;1.00
7378;DHT22;3730;50.856;12.776;2023-05-10T02:42:36;12.50;1.00
7378;DHT22;3730;50.856;12.776;2023-05-10T02:45:07;12.40;1.00
7378;DHT22;3730;50.856;12.776;2023-05-10T02:47:33;12.50;1.00
7378;DHT22;3730;50.856;12.776;2023-05-10T02:49:59;12.40;1.00
7378;DHT22;3730;50.856;12.776;2023-05-10T02:52:28;12.50;1.00
7378;DHT22;3730;50.856;12.776;2023-05-10T02:54:55;12.40;1.00
7378;DHT22;3730;50.856;12.776;2023-05-10T02:57:27;12.50;1.00
7378;DHT22;3730;50.856;12.776;2023-05-10T02:59:54;12.30;1.00
7378;DHT22;3730;50.856;12.776;2023-05-10T03:02:20;12.10;1.00
7378;DHT22;3730;50.856;12.776;2023-05-10T03:04:46;12.60;1.00
7378;DHT22;3730;50.856;12.776;2023-05-10T03:07:12;12.30;1.00
7378;DHT22;3730;50.856;12.776;2023-05-10T03:09:38;12.10;1.00
7378;DHT22;3730;50.856;12.776;2023-05-10T03:15:11;12.30;1.00
7378;DHT22;3730;50.856;12.776;2023-05-10T03:17:55;12.30;1.00
7378;DHT22;3730;50.856;12.776;2023-05-10T03:20:25;12.20;1.00
7378;DHT22;3730;50.856;12.776;2023-05-10T03:23:02;12.30;1.00
7378;DHT22;3730;50.856;12.776;2023-05-10T03:25:31;12.20;1.00
7378;DHT22;3730;50.856;12.776;2023-05-10T03:27:57;12.20;1.00
7378;DHT22;3730;50.856;12.776;2023-05-10T03:30:24;12.30;1.00
7378;DHT22;3730;50.856;12.776;2023-05-10T03:35:16;12.10;1.00
7378;DHT22;3730;50.856;12.776;2023-05-10T03:37:42;12.00;1.00
7378;DHT22;3730;50.856;12.776;2023-05-10T03:40:09;12.20;1.00
7378;DHT22;3730;50.856;12.776;2023-05-10T03:42:35;11.70;1.00
7378;DHT22;3730;50.856;12.776;2023-05-10T03:45:01;11.90;1.00
7378;DHT22;3730;50.856;12.776;2023-05-10T03:47:26;12.00;1.00
7378;DHT22;3730;50.856;12.776;2023-05-10T03:54:44;12.00;1.00
7378;DHT22;3730;50.856;12.776;2023-05-10T03:59:35;12.10;1.00
7378;DHT22;3730;50.856;12.776;2023-05-10T04:02:01;12.20;1.00
7378;DHT22;3730;50.856;12.776;2023-05-10T04:06:53;12.20;1.00
7378;DHT22;3730;50.856;12.776;2023-05-10T04:09:18;12.10;1.00
7378;DHT22;3730;50.856;12.776;2023-05-10T04:11:44;12.30;1.00
7378;DHT22;3730;50.856;12.776;2023-05-10T04:16:36;12.20;1.00
7378;DHT22;3730;50.856;12.776;2023-05-10T04:19:01;12.50;1.00
7378;DHT22;3730;50.856;12.776;2023-05-10T04:21:27;12.50;1.00
7378;DHT22;3730;50.856;12.776;2023-05-10T04:23:53;12.30;1.00
7378;DHT22;3730;50.856;12.776;2023-05-10T04:26:19;12.30;1.00
7378;DHT22;3730;50.856;12.776;2023-05-10T04:28:45;12.40;1.00
7378;DHT22;3730;50.856;12.776;2023-05-10T04:33:37;12.60;1.00
7378;DHT22;3730;50.856;12.776;2023-05-10T04:36:03;12.50;1.00
7378;DHT22;3730;50.856;12.776;2023-05-10T04:38:29;12.60;1.00
7378;DHT22;3730;50.856;12.776;2023-05-10T04:41:06;12.50;1.00
7378;DHT22;3730;50.856;12.776;2023-05-10T04:43:32;12.70;1.00
7378;DHT22;3730;50.856;12.776;2023-05-10T04:48:24;12.70;1.00
7378;DHT22;3730;50.856;12.776;2023-05-10T04:50:49;12.70;1.00
7378;DHT22;3730;50.856;12.776;2023-05-10T04:55:42;12.80;1.00
7378;DHT22;3730;50.856;12.776;2023-05-10T04:58:07;12.90;1.00
7378;DHT22;3730;50.856;12.776;2023-05-10T05:00:33;12.90;1.00
7378;DHT22;3730;50.856;12.776;2023-05-10T05:02:59;12.90;1.00
7378;DHT22;3730;50.856;12.776;2023-05-10T05:05:25;13.10;1.00
7378;DHT22;3730;50.856;12.776;2023-05-10T05:10:16;13.20;1.00
7378;DHT22;3730;50.856;12.776;2023-05-10T05:12:42;13.20;1.00
7378;DHT22;3730;50.856;12.776;2023-05-10T05:15:08;13.10;1.00
7378;DHT22;3730;50.856;12.776;2023-05-10T05:17:35;13.20;1.00
7378;DHT22;3730;50.856;12.776;2023-05-10T05:20:00;13.30;1.00
7378;DHT22;3730;50.856;12.776;2023-05-10T05:22:26;13.50;1.00
7378;DHT22;3730;50.856;12.776;2023-05-10T05:24:57;13.70;1.00
7378;DHT22;3730;50.856;12.776;2023-05-10T05:27:24;13.50;1.00
7378;DHT22;3730;50.856;12.776;2023-05-10T05:29:54;13.60;1.00
7378;DHT22;3730;50.856;12.776;2023-05-10T05:32:20;13.40;1.00
7378;DHT22;3730;50.856;12.776;2023-05-10T05:34:46;13.60;1.00
7378;DHT22;3730;50.856;12.776;2023-05-10T05:37:15;13.70;1.00
7378;DHT22;3730;50.856;12.776;2023-05-10T05:42:09;13.60;1.00
7378;DHT22;3730;50.856;12.776;2023-05-10T05:44:34;13.70;1.00
7378;DHT22;3730;50.856;12.776;2023-05-10T05:47:00;13.90;1.00
7378;DHT22;3730;50.856;12.776;2023-05-10T05:49:26;13.60;1.00
7378;DHT22;3730;50.856;12.776;2023-05-10T05:51:52;13.70;1.00
7378;DHT22;3730;50.856;12.776;2023-05-10T05:54:17;13.80;1.00
7378;DHT22;3730;50.856;12.776;2023-05-10T05:59:12;14.10;1.00
7378;DHT22;3730;50.856;12.776;2023-05-10T06:01:38;13.80;1.00
7378;DHT22;3730;50.856;12.776;2023-05-10T06:04:04;13.80;1.00
7378;DHT22;3730;50.856;12.776;2023-05-10T06:08:55;14.00;1.00
7378;DHT22;3730;50.856;12.776;2023-05-10T06:11:21;14.10;1.00
7378;DHT22;3730;50.856;12.776;2023-05-10T06:13:47;14.10;1.00
7378;DHT22;3730;50.856;12.776;2023-05-10T06:16:13;13.90;1.00
7378;DHT22;3730;50.856;12.776;2023-05-10T06:18:39;13.90;1.00
7378;DHT22;3730;50.856;12.776;2023-05-10T06:21:04;14.10;1.00
7378;DHT22;3730;50.856;12.776;2023-05-10T06:23:30;13.90;1.00
7378;DHT22;3730;50.856;12.776;2023-05-10T06:25:56;14.20;1.00
7378;DHT22;3730;50.856;12.776;2023-05-10T06:30:47;14.20;1.00
7378;DHT22;3730;50.856;12.776;2023-05-10T06:33:13;14.20;1.00
7378;DHT22;3730;50.856;12.776;2023-05-10T06:35:39;14.20;1.00
7378;DHT22;3730;50.856;12.776;2023-05-10T06:38:04;14.00;1.00
7378;DHT22;3730;50.856;12.776;2023-05-10T06:40:30;14.20;1.00
7378;DHT22;3730;50.856;12.776;2023-05-10T06:42:56;14.40;1.00
7378;DHT22;3730;50.856;12.776;2023-05-10T06:45:21;14.40;1.00
7378;DHT22;3730;50.856;12.776;2023-05-10T06:50:13;14.40;1.00
7378;DHT22;3730;50.856;12.776;2023-05-10T06:52:39;14.20;1.00
7378;DHT22;3730;50.856;12.776;2023-05-10T06:55:05;14.30;1.00
7378;DHT22;3730;50.856;12.776;2023-05-10T06:59:58;14.50;1.00
7378;DHT22;3730;50.856;12.776;2023-05-10T07:02:24;14.50;1.00
7378;DHT22;3730;50.856;12.776;2023-05-10T07:04:49;14.50;1.00
7378;DHT22;3730;50.856;12.776;2023-05-10T07:07:17;14.60;1.00
7378;DHT22;3730;50.856;12.776;2023-05-10T07:09:42;14.70;1.00
